Time;durP1;ratioP1;P1;durP2;ratioP2;P2;SDS_P1;SDS_P2;PMS_P1;PMS_P2;Temp;Humidity;BMP_temperature;BMP_pressure;BME280_temperature;BME280_humidity;BME280_pressure;Samples;Min_cycle;Max_cycle;Signal;HPM_P1;HPM_P2
2023/08/09 00:01:45;;;;;;;3.40;1.60;;;;;;;14.61;78.22;98648.63;221585;1304;22616;-78
2023/08/09 00:06:47;;;;;;;3.00;2.10;;;;;;;14.60;78.28;98648.38;221297;1304;23705;-79
2023/08/09 00:11:49;;;;;;;2.30;2.10;;;;;;;14.58;78.42;98648.60;221720;1298;22566;-78
2023/08/09 00:16:51;;;;;;;3.40;2.40;;;;;;;14.57;78.52;98651.76;221645;1304;22570;-78
2023/08/09 00:21:53;;;;;;;3.50;2.40;;;;;;;14.55;78.63;98650.04;221405;1302;22585;-78
2023/08/09 00:26:55;;;;;;;4.10;2.30;;;;;;;14.53;78.64;98644.63;221681;1304;24420;-78
2023/08/09 00:31:58;;;;;;;2.80;2.40;;;;;;;14.51;79.05;98646.95;221662;1305;22569;-78
2023/08/09 00:36:59;;;;;;;3.20;2.20;;;;;;;14.50;78.90;98648.88;221592;1305;22568;-79
2023/08/09 00:42:02;;;;;;;3.30;2.30;;;;;;;14.50;79.03;98654.08;221463;1304;22679;-77
2023/08/09 00:47:09;;;;;;;6.00;2.40;;;;;;;14.48;79.21;98650.98;221648;1305;22622;-78
2023/08/09 00:52:13;;;;;;;4.70;2.90;;;;;;;14.45;79.39;98653.33;221659;1305;22586;-78
2023/08/09 00:57:15;;;;;;;4.80;2.40;;;;;;;14.41;79.46;98651.42;221665;1305;24286;-78
2023/08/09 01:02:17;;;;;;;3.40;2.50;;;;;;;14.37;79.71;98653.27;221622;1305;22559;-78
2023/08/09 01:07:49;;;;;;;4.10;2.30;;;;;;;14.34;79.75;98655.18;221478;1301;22577;-79
2023/08/09 01:13:01;;;;;;;3.00;2.40;;;;;;;14.31;80.10;98649.27;221709;1305;22637;-78
2023/08/09 01:18:06;;;;;;;3.00;2.40;;;;;;;14.28;80.15;98644.91;221499;1304;23060;-78
2023/08/09 01:23:18;;;;;;;4.60;2.40;;;;;;;14.24;80.31;98654.02;221593;1304;22573;-78
2023/08/09 01:28:20;;;;;;;2.80;2.50;;;;;;;14.19;80.61;98653.02;221752;1299;22717;-78
2023/08/09 01:33:22;;;;;;;3.70;2.50;;;;;;;14.16;80.35;98658.85;221596;1304;22577;-78
2023/08/09 01:38:28;;;;;;;3.70;2.50;;;;;;;14.13;80.79;98661.80;221625;1301;22589;-78
2023/08/09 01:43:32;;;;;;;2.80;2.00;;;;;;;14.11;80.91;98659.23;221632;1298;22573;-79
2023/08/09 01:48:35;;;;;;;3.00;2.50;;;;;;;14.11;80.88;98661.67;221651;1305;23148;-78
2023/08/09 01:53:37;;;;;;;3.10;2.40;;;;;;;14.11;81.21;98663.52;221661;1304;22566;-79
2023/08/09 01:58:39;;;;;;;4.50;2.60;;;;;;;14.10;81.22;98664.06;221765;1301;22562;-79
2023/08/09 02:03:41;;;;;;;3.60;2.90;;;;;;;14.06;81.44;98671.10;221525;1304;22686;-79
2023/08/09 02:08:44;;;;;;;3.40;3.10;;;;;;;14.06;81.49;98674.48;221686;1305;22614;-78
2023/08/09 02:13:47;;;;;;;3.40;2.70;;;;;;;14.08;81.90;98670.63;221716;1298;22674;-79
2023/08/09 02:18:50;;;;;;;4.40;3.10;;;;;;;14.08;81.99;98675.79;221727;1305;22573;-79
2023/08/09 02:23:53;;;;;;;4.00;3.20;;;;;;;14.06;82.16;98667.27;221708;1299;22562;-79
2023/08/09 02:28:55;;;;;;;4.70;2.70;;;;;;;14.08;82.73;98661.12;221363;1304;22612;-78
2023/08/09 02:33:58;;;;;;;3.80;2.90;;;;;;;14.09;82.62;98641.69;221731;1305;22576;-76
2023/08/09 02:39:00;;;;;;;3.40;2.80;;;;;;;14.09;82.77;98644.51;221608;1304;22552;-78
2023/08/09 02:44:03;;;;;;;4.70;3.10;;;;;;;14.09;83.08;98653.53;221667;1302;22675;-79
2023/08/09 02:49:06;;;;;;;3.50;2.90;;;;;;;14.07;83.29;98653.60;221483;1304;22562;-78
2023/08/09 02:54:08;;;;;;;5.20;3.70;;;;;;;14.05;83.22;98656.17;221755;1302;22576;-78
2023/08/09 02:59:10;;;;;;;5.60;3.60;;;;;;;14.03;83.31;98655.73;221572;1302;22565;-78
2023/08/09 03:04:13;;;;;;;5.40;4.00;;;;;;;14.02;83.32;98645.35;221712;1304;22572;-79
2023/08/09 03:09:16;;;;;;;4.80;3.60;;;;;;;14.00;83.58;98647.12;221698;1305;24304;-78
2023/08/09 03:14:18;;;;;;;5.50;3.90;;;;;;;13.98;83.66;98647.79;221837;1301;25353;-79
2023/08/09 03:19:20;;;;;;;6.40;3.90;;;;;;;13.93;83.55;98649.38;221361;1282;22565;-79
2023/08/09 03:24:24;;;;;;;4.90;3.90;;;;;;;13.90;83.70;98648.45;221722;1305;24352;-78
2023/08/09 03:29:28;;;;;;;4.00;3.50;;;;;;;13.85;83.74;98657.09;221696;1302;22686;-78
2023/08/09 03:34:31;;;;;;;5.30;4.20;;;;;;;13.82;83.68;98658.73;221676;1298;24317;-79
2023/08/09 03:39:35;;;;;;;6.80;4.20;;;;;;;13.83;84.20;98661.39;221764;1304;22587;-78
2023/08/09 03:44:38;;;;;;;5.40;4.30;;;;;;;13.86;84.24;98656.42;221737;1305;23049;-78
2023/08/09 03:49:40;;;;;;;7.30;6.30;;;;;;;13.88;84.49;98652.92;221521;1301;22564;-79
2023/08/09 03:54:43;;;;;;;7.90;4.80;;;;;;;13.91;84.50;98645.31;221668;1305;22570;-78
2023/08/09 03:59:46;;;;;;;6.20;4.00;;;;;;;13.94;84.61;98639.41;221601;1304;22578;-79
2023/08/09 04:04:48;;;;;;;5.30;3.70;;;;;;;13.96;84.61;98638.40;221712;1304;22565;-78
2023/08/09 04:09:51;;;;;;;4.90;3.60;;;;;;;13.96;84.41;98633.73;221486;1301;23299;-78
2023/08/09 04:14:54;;;;;;;5.50;3.90;;;;;;;13.95;84.31;98637.73;221695;1298;22601;-78
2023/08/09 04:19:56;;;;;;;5.90;4.00;;;;;;;13.91;84.40;98633.95;221756;1305;22574;-79
2023/08/09 04:24:58;;;;;;;6.10;3.80;;;;;;;13.88;84.39;98633.10;221539;1304;22570;-78
2023/08/09 04:30:03;;;;;;;4.90;4.00;;;;;;;13.85;84.25;98642.05;221684;1305;22591;-79
2023/08/09 04:35:07;;;;;;;2.40;2.30;;;;;;;13.84;84.31;98647.86;221539;1305;22567;-79
2023/08/09 04:40:12;;;;;;;6.80;3.60;;;;;;;13.82;84.22;98657.02;221702;1302;22594;-79
2023/08/09 04:45:14;;;;;;;4.90;3.70;;;;;;;13.82;84.24;98659.96;221679;1305;22669;-79
2023/08/09 04:50:17;;;;;;;5.50;4.00;;;;;;;13.84;84.23;98663.18;221672;1303;22579;-79
2023/08/09 04:55:19;;;;;;;6.30;4.10;;;;;;;13.95;84.45;98666.27;221707;1298;22561;-79
2023/08/09 05:00:22;;;;;;;5.50;4.10;;;;;;;14.10;84.46;98661.42;221673;1302;22600;-78
2023/08/09 05:05:24;;;;;;;4.60;3.30;;;;;;;14.16;84.25;98655.41;221542;1304;22641;-78
2023/08/09 05:10:26;;;;;;;4.70;3.50;;;;;;;14.17;84.13;98655.70;221679;1305;25425;-78
2023/08/09 05:15:28;;;;;;;4.10;3.50;;;;;;;14.20;83.97;98662.79;221776;1301;22561;-79
2023/08/09 05:20:30;;;;;;;4.20;3.40;;;;;;;14.36;84.07;98664.61;221744;1298;22579;-79
2023/08/09 05:25:32;;;;;;;6.50;4.00;;;;;;;14.48;83.90;98664.40;221659;1301;25363;-78
2023/08/09 05:30:34;;;;;;;5.00;3.40;;;;;;;14.60;84.00;98669.88;221752;1302;22562;-78
2023/08/09 05:35:37;;;;;;;4.80;3.50;;;;;;;14.73;83.82;98667.34;221641;1298;22566;-78
2023/08/09 05:40:40;;;;;;;4.60;3.60;;;;;;;14.90;83.80;98671.02;221506;1292;22605;-78
2023/08/09 05:45:44;;;;;;;3.50;2.90;;;;;;;15.07;83.68;98672.61;221100;1298;22568;-77
2023/08/09 05:50:46;;;;;;;4.30;3.90;;;;;;;15.23;83.31;98672.49;221153;1298;22598;-78
2023/08/09 05:55:49;;;;;;;4.50;3.20;;;;;;;15.42;83.33;98676.55;220759;1301;22608;-76
2023/08/09 06:00:51;;;;;;;4.50;2.70;;;;;;;15.70;83.16;98682.69;221036;1305;22564;-77
2023/08/09 06:05:53;;;;;;;3.20;2.90;;;;;;;15.92;82.40;98683.86;220807;1285;23760;-77
2023/08/09 06:10:56;;;;;;;5.50;4.90;;;;;;;16.12;82.17;98678.05;220916;1300;22580;-77
2023/08/09 06:15:58;;;;;;;5.40;3.40;;;;;;;16.33;81.63;98673.17;221140;1298;22621;-75
2023/08/09 06:21:01;;;;;;;5.30;3.30;;;;;;;16.50;81.01;98669.21;221238;1291;22577;-76
2023/08/09 06:26:03;;;;;;;3.80;2.90;;;;;;;16.62;80.28;98666.42;221151;1301;22600;-74
2023/08/09 06:31:05;;;;;;;3.00;2.70;;;;;;;16.75;79.84;98671.63;221166;1301;23693;-76
2023/08/09 06:36:08;;;;;;;4.70;2.70;;;;;;;16.92;79.74;98672.30;220898;1298;22590;-74
2023/08/09 06:41:10;;;;;;;3.10;2.10;;;;;;;17.10;79.36;98665.71;221232;1301;22581;-75
2023/08/09 06:46:12;;;;;;;4.70;2.10;;;;;;;17.25;78.51;98669.91;221028;1304;23264;-75
2023/08/09 06:51:15;;;;;;;2.50;2.00;;;;;;;17.42;78.45;98663.06;220930;1298;22572;-76
2023/08/09 06:56:17;;;;;;;4.30;2.20;;;;;;;17.67;78.28;98654.89;221070;1292;22585;-75
2023/08/09 07:01:19;;;;;;;2.30;2.00;;;;;;;17.89;77.45;98651.04;221092;1301;22586;-74
2023/08/09 07:06:21;;;;;;;2.90;2.20;;;;;;;18.08;76.69;98645.90;221311;1304;22573;-75
2023/08/09 07:11:23;;;;;;;5.10;3.30;;;;;;;18.22;75.72;98648.09;221324;1282;22568;-75
2023/08/09 07:16:25;;;;;;;3.90;2.60;;;;;;;18.38;74.99;98647.41;221160;1292;22569;-76
2023/08/09 07:21:27;;;;;;;2.90;2.10;;;;;;;18.51;74.07;98653.41;221191;1304;22594;-75
2023/08/09 07:26:30;;;;;;;4.80;2.00;;;;;;;18.63;73.42;98654.20;221076;1304;22566;-76
2023/08/09 07:31:32;;;;;;;1.90;1.40;;;;;;;18.91;72.65;98656.85;221070;1287;22794;-76
2023/08/09 07:36:34;;;;;;;4.10;2.00;;;;;;;19.21;71.92;98660.23;220885;1301;22596;-74
2023/08/09 07:41:36;;;;;;;3.60;2.00;;;;;;;19.51;70.58;98656.50;221026;1305;22572;-75
2023/08/09 07:46:38;;;;;;;3.20;1.80;;;;;;;19.86;70.80;98657.20;220931;1305;22577;-75
2023/08/09 07:51:40;;;;;;;3.90;1.90;;;;;;;20.20;70.50;98659.16;221293;1298;22597;-76
2023/08/09 07:56:42;;;;;;;1.80;1.60;;;;;;;20.38;69.36;98661.25;221135;1291;23174;-77
2023/08/09 08:01:44;;;;;;;2.60;1.70;;;;;;;20.39;68.12;98664.75;221073;1287;22580;-76
2023/08/09 08:06:48;;;;;;;2.20;1.60;;;;;;;20.41;67.66;98667.19;220989;1301;26058;-76
2023/08/09 08:11:52;;;;;;;3.10;1.60;;;;;;;20.48;67.21;98669.08;221072;1294;22607;-75
2023/08/09 08:16:54;;;;;;;3.50;2.60;;;;;;;20.61;67.24;98674.08;220977;1286;22564;-75
2023/08/09 08:21:56;;;;;;;3.50;2.10;;;;;;;20.76;66.80;98673.23;221162;1298;22626;-75
2023/08/09 08:26:58;;;;;;;7.40;2.00;;;;;;;20.88;66.84;98672.85;221136;1303;25450;-75
2023/08/09 08:32:00;;;;;;;4.30;1.70;;;;;;;20.88;66.58;98679.61;221207;1292;22697;-77
2023/08/09 08:37:04;;;;;;;3.00;1.50;;;;;;;20.61;65.51;98681.86;221204;1301;26194;-77
2023/08/09 08:42:07;;;;;;;3.00;1.30;;;;;;;20.33;64.98;98694.73;221176;1304;22559;-77
2023/08/09 08:47:09;;;;;;;3.50;2.00;;;;;;;20.00;64.49;98705.77;221019;1301;22599;-75
2023/08/09 08:52:14;;;;;;;1.90;1.40;;;;;;;19.63;66.03;98713.30;221236;1304;22650;-76
2023/08/09 08:57:16;;;;;;;3.30;2.30;;;;;;;19.36;67.08;98714.10;221343;1305;22565;-77
2023/08/09 09:02:19;;;;;;;1.60;1.40;;;;;;;19.15;68.04;98711.42;221455;1301;22567;-77
2023/08/09 09:07:21;;;;;;;2.10;1.60;;;;;;;19.12;69.01;98710.91;221073;1304;22600;-76
2023/08/09 09:12:24;;;;;;;1.70;1.50;;;;;;;19.16;69.51;98719.36;221181;1301;22810;-74
2023/08/09 09:17:26;;;;;;;2.40;1.40;;;;;;;19.11;69.55;98723.75;221393;1303;22619;-76
2023/08/09 09:22:30;;;;;;;1.90;1.50;;;;;;;18.99;69.56;98724.89;221166;1304;22548;-76
2023/08/09 09:27:33;;;;;;;3.90;1.60;;;;;;;18.92;70.14;98732.27;221010;1294;22613;-77
2023/08/09 09:32:35;;;;;;;3.90;1.80;;;;;;;18.73;70.19;98734.27;221301;1304;22695;-77
2023/08/09 09:37:37;;;;;;;3.40;1.70;;;;;;;18.42;70.54;98741.17;221090;1292;22571;-77
2023/08/09 09:42:39;;;;;;;2.60;2.20;;;;;;;18.19;71.47;98742.44;220890;1305;23576;-76
2023/08/09 09:47:41;;;;;;;2.40;1.90;;;;;;;18.00;72.38;98744.35;220739;1291;22572;-77
2023/08/09 09:52:45;;;;;;;3.10;2.00;;;;;;;17.89;73.27;98742.70;221081;1298;22585;-75
2023/08/09 09:57:47;;;;;;;4.90;2.60;;;;;;;17.67;73.46;98745.63;221158;1298;22617;-80
2023/08/09 10:02:51;;;;;;;6.80;2.70;;;;;;;17.37;74.10;98737.52;220921;1298;22572;-80
2023/08/09 10:07:55;;;;;;;5.70;1.90;;;;;;;17.18;75.09;98731.21;221082;1298;24406;-81
2023/08/09 10:13:03;;;;;;;3.00;2.20;;;;;;;17.18;75.76;98727.27;221095;1301;22583;-81
2023/08/09 10:18:35;;;;;;;6.00;1.70;;;;;;;17.13;75.85;98727.63;221118;1301;22564;-79
2023/08/09 10:23:37;;;;;;;9.90;2.90;;;;;;;17.13;76.54;98721.10;221058;1306;25137;-79
2023/08/09 10:28:42;;;;;;;3.40;1.80;;;;;;;17.28;77.11;98720.88;221208;1289;22582;-80
2023/08/09 10:34:06;;;;;;;1.80;1.70;;;;;;;17.50;77.21;98720.89;221383;1298;22693;-80
2023/08/09 10:39:20;;;;;;;4.40;1.80;;;;;;;17.70;77.15;98718.54;221327;1302;22577;-80
2023/08/09 10:44:32;;;;;;;2.10;1.80;;;;;;;17.71;76.24;98723.45;221370;1301;25804;-81
2023/08/09 10:49:47;;;;;;;3.20;1.90;;;;;;;17.66;76.48;98723.29;221023;1298;157238;-81
2023/08/09 10:54:50;;;;;;;2.40;2.20;;;;;;;17.88;77.35;98716.42;221112;1298;25297;-80
2023/08/09 10:59:59;;;;;;;2.40;2.20;;;;;;;17.93;77.07;98709.69;221227;1304;22672;-81
2023/08/09 11:05:02;;;;;;;;;;;;;;;17.92;77.23;98705.27;221041;1305;25265;-80
2023/08/09 11:10:05;;;;;;;4.10;2.40;;;;;;;18.07;77.49;98694.34;221155;1302;22588;-80
2023/08/09 11:15:07;;;;;;;4.10;2.20;;;;;;;18.33;77.47;98688.79;221218;1305;25293;-81
2023/08/09 11:20:13;;;;;;;2.40;1.80;;;;;;;18.43;77.12;98680.16;221130;1306;24249;-81
2023/08/09 11:25:15;;;;;;;3.30;2.60;;;;;;;18.55;77.31;98676.55;221191;1302;24288;-80
2023/08/09 11:30:17;;;;;;;3.90;2.60;;;;;;;18.72;77.38;98678.24;221290;1304;25254;-80
2023/08/09 11:35:24;;;;;;;5.00;2.90;;;;;;;18.88;77.53;98679.15;221132;1304;22680;-81
2023/08/09 11:40:26;;;;;;;3.60;2.80;;;;;;;18.82;77.31;98674.83;221106;1290;22685;-81
2023/08/09 11:45:43;;;;;;;3.10;2.80;;;;;;;18.87;77.41;98671.56;220979;1304;24298;-81
2023/08/09 11:51:14;;;;;;;2.90;2.60;;;;;;;18.81;77.18;98671.92;221283;1287;22581;-78
2023/08/09 11:56:22;;;;;;;3.10;2.60;;;;;;;18.83;77.56;98667.98;221291;1305;22576;-81
2023/08/09 12:01:27;;;;;;;3.20;2.50;;;;;;;18.96;77.55;98671.30;221357;1301;22594;-81
2023/08/09 12:06:39;;;;;;;2.60;2.40;;;;;;;18.93;77.16;98673.64;221240;1298;22598;-81
2023/08/09 12:11:48;;;;;;;4.40;3.20;;;;;;;18.75;76.98;98675.90;221187;1287;22925;-80
2023/08/09 12:16:50;;;;;;;2.80;2.40;;;;;;;18.44;76.95;98673.84;221186;1304;22551;-78
2023/08/09 12:21:53;;;;;;;2.80;2.30;;;;;;;18.19;77.48;98672.20;221169;1304;23343;-81
2023/08/09 12:26:55;;;;;;;2.50;2.20;;;;;;;17.99;77.76;98672.91;221030;1288;22579;-81
2023/08/09 12:31:59;;;;;;;4.40;2.50;;;;;;;17.76;78.21;98669.36;221357;1305;22575;-78
2023/08/09 12:37:02;;;;;;;2.70;2.20;;;;;;;17.68;78.57;98663.46;221343;1292;25343;-82
2023/08/09 12:42:04;;;;;;;2.70;2.30;;;;;;;17.70;78.83;98665.00;221031;1298;22625;-81
2023/08/09 12:47:07;;;;;;;3.10;2.20;;;;;;;17.68;78.98;98665.86;221005;1294;22595;-81
2023/08/09 12:52:12;;;;;;;3.40;2.60;;;;;;;17.67;79.12;98666.98;220972;1292;23695;-81
2023/08/09 12:57:14;;;;;;;4.80;2.60;;;;;;;17.63;79.35;98673.20;221173;1304;22567;-81
2023/08/09 13:02:16;;;;;;;3.30;2.90;;;;;;;17.56;79.50;98676.34;220919;1299;22935;-78
2023/08/09 13:07:17;;;;;;;2.90;2.60;;;;;;;17.53;79.82;98674.98;221077;1291;22594;-81
2023/08/09 13:12:24;;;;;;;2.90;2.70;;;;;;;17.48;79.92;98668.17;220971;1304;24395;-79
2023/08/09 13:17:26;;;;;;;5.20;4.20;;;;;;;17.41;80.18;98661.77;221260;1302;22708;-80
2023/08/09 13:22:28;;;;;;;3.20;2.50;;;;;;;17.32;80.36;98661.94;221216;1283;24276;-79
2023/08/09 13:27:30;;;;;;;3.50;2.30;;;;;;;17.32;80.83;98665.94;220844;1289;23372;-78
2023/08/09 13:32:34;;;;;;;2.70;2.20;;;;;;;17.36;80.88;98654.87;221090;1303;22573;-78
2023/08/09 13:37:39;;;;;;;3.30;2.20;;;;;;;17.36;80.69;98657.91;220976;1295;22595;-77
2023/08/09 13:42:44;;;;;;;2.30;1.90;;;;;;;17.31;80.73;98662.62;220723;1306;23112;-79
2023/08/09 13:47:46;;;;;;;2.70;2.00;;;;;;;17.17;80.77;98662.29;220889;1295;22570;-79
2023/08/09 13:52:48;;;;;;;2.30;1.90;;;;;;;16.97;80.80;98666.06;220644;1304;22599;-78
2023/08/09 13:57:50;;;;;;;2.80;2.30;;;;;;;16.89;81.45;98682.05;221034;1301;22598;-78
2023/08/09 14:02:52;;;;;;;2.80;2.10;;;;;;;17.18;81.99;98681.12;221105;1304;22580;-78
2023/08/09 14:07:54;;;;;;;2.30;1.60;;;;;;;17.72;82.08;98677.16;220767;1305;22593;-79
2023/08/09 14:12:57;;;;;;;3.00;1.80;;;;;;;18.07;80.83;98671.17;220959;1304;24355;-79
2023/08/09 14:17:59;;;;;;;1.60;1.50;;;;;;;18.30;79.80;98675.09;220843;1306;22576;-78
2023/08/09 14:23:01;;;;;;;3.20;1.70;;;;;;;18.38;79.06;98673.95;221233;1305;22570;-77
2023/08/09 14:28:03;;;;;;;2.60;2.00;;;;;;;18.48;79.01;98672.73;221380;1306;25265;-78
2023/08/09 14:33:05;;;;;;;3.40;2.00;;;;;;;18.50;78.76;98677.80;221395;1304;22554;-78
2023/08/09 14:38:08;;;;;;;2.40;2.00;;;;;;;18.41;78.50;98683.55;221186;1305;22595;-78
2023/08/09 14:43:10;;;;;;;3.10;1.90;;;;;;;18.29;78.64;98682.92;221191;1307;22568;-78
2023/08/09 14:48:12;;;;;;;2.30;1.80;;;;;;;18.15;78.97;98686.27;221352;1306;24276;-78
2023/08/09 14:53:14;;;;;;;2.40;2.00;;;;;;;17.98;79.23;98688.29;221099;1306;22604;-78
2023/08/09 14:58:16;;;;;;;2.00;1.70;;;;;;;17.81;79.65;98689.33;221394;1304;25265;-78
2023/08/09 15:03:18;;;;;;;2.00;1.70;;;;;;;17.69;80.09;98688.17;221388;1306;22771;-79
2023/08/09 15:08:20;;;;;;;2.50;2.10;;;;;;;17.65;80.46;98687.36;221369;1307;25302;-79
2023/08/09 15:13:22;;;;;;;2.40;2.00;;;;;;;17.75;81.30;98685.46;221243;1304;22609;-78
2023/08/09 15:18:26;;;;;;;3.80;1.90;;;;;;;18.08;81.64;98679.70;221367;1305;22576;-79
2023/08/09 15:23:28;;;;;;;2.40;1.70;;;;;;;18.33;81.16;98674.38;221364;1305;25551;-78
2023/08/09 15:28:32;;;;;;;1.90;1.70;;;;;;;18.31;80.29;98685.49;221375;1305;22576;-79
2023/08/09 15:33:33;;;;;;;2.20;2.00;;;;;;;18.22;80.09;98689.17;221397;1304;24454;-79
2023/08/09 15:38:36;;;;;;;2.60;1.90;;;;;;;18.30;80.56;98686.30;221111;1306;22579;-79
2023/08/09 15:43:38;;;;;;;1.70;1.60;;;;;;;18.47;80.30;98687.79;221344;1304;26245;-78
2023/08/09 15:48:39;;;;;;;1.30;1.20;;;;;;;18.50;79.75;98690.59;221358;1307;22560;-78
2023/08/09 15:53:42;;;;;;;1.50;1.40;;;;;;;18.30;78.96;98696.59;221274;1304;22698;-78
2023/08/09 15:58:44;;;;;;;1.90;1.70;;;;;;;18.04;79.10;98706.26;221374;1301;22568;-77
2023/08/09 16:03:47;;;;;;;1.80;1.70;;;;;;;17.77;79.15;98706.79;221362;1304;22572;-78
2023/08/09 16:08:49;;;;;;;3.70;2.10;;;;;;;17.60;79.81;98723.35;221399;1300;22573;-78
2023/08/09 16:13:51;;;;;;;4.60;1.90;;;;;;;17.46;79.92;98724.48;221380;1304;22613;-78
2023/08/09 16:18:53;;;;;;;3.10;2.10;;;;;;;17.31;80.32;98746.73;221370;1305;22571;-78
2023/08/09 16:23:56;;;;;;;2.30;1.60;;;;;;;17.05;80.72;98754.77;221393;1307;22644;-78
2023/08/09 16:28:58;;;;;;;1.70;1.30;;;;;;;16.72;80.86;98758.09;221388;1301;22576;-78
2023/08/09 16:34:00;;;;;;;1.50;1.40;;;;;;;16.47;81.47;98769.55;221363;1304;24254;-79
2023/08/09 16:39:02;;;;;;;4.20;3.80;;;;;;;16.32;81.47;98776.64;221342;1305;22578;-79
2023/08/09 16:44:04;;;;;;;1.30;1.20;;;;;;;16.16;81.58;98779.34;221201;1307;22968;-80
2023/08/09 16:49:06;;;;;;;1.70;0.90;;;;;;;16.11;82.08;98780.55;221179;1306;24285;-79
2023/08/09 16:54:08;;;;;;;1.30;1.20;;;;;;;16.15;82.44;98783.59;221192;1301;25310;-79
2023/08/09 16:59:10;;;;;;;2.30;1.60;;;;;;;16.16;82.22;98788.53;221325;1302;22575;-78
2023/08/09 17:04:12;;;;;;;1.80;1.30;;;;;;;16.11;82.44;98793.34;221106;1307;22595;-79
2023/08/09 17:09:14;;;;;;;2.40;1.80;;;;;;;16.08;82.80;98800.67;221388;1304;22582;-79
2023/08/09 17:14:16;;;;;;;2.50;1.50;;;;;;;16.11;82.98;98813.90;221266;1304;25431;-77
2023/08/09 17:19:22;;;;;;;1.20;1.10;;;;;;;15.97;82.63;98826.55;221386;1305;22572;-78
2023/08/09 17:24:24;;;;;;;1.60;1.50;;;;;;;15.80;82.73;98827.21;221385;1305;23112;-78
2023/08/09 17:29:26;;;;;;;1.60;1.30;;;;;;;15.67;83.16;98829.77;221231;1304;22657;-78
2023/08/09 17:34:28;;;;;;;1.60;1.50;;;;;;;15.62;83.54;98829.19;221358;1301;22606;-79
2023/08/09 17:39:30;;;;;;;2.00;1.50;;;;;;;15.52;83.71;98839.43;221368;1303;22556;-78
2023/08/09 17:44:33;;;;;;;2.00;1.90;;;;;;;15.41;83.83;98847.91;221216;1307;22594;-79
2023/08/09 17:49:35;;;;;;;3.20;2.00;;;;;;;15.32;84.16;98851.33;221329;1304;22580;-78
2023/08/09 17:54:36;;;;;;;4.10;2.20;;;;;;;15.24;84.55;98858.08;221356;1304;22572;-77
2023/08/09 17:59:38;;;;;;;2.60;2.40;;;;;;;15.21;84.67;98864.98;221358;1304;22748;-78
2023/08/09 18:04:40;;;;;;;3.30;3.00;;;;;;;15.15;84.86;98867.23;221344;1304;22569;-78
2023/08/09 18:09:42;;;;;;;5.30;4.80;;;;;;;15.12;85.19;98871.67;221179;1306;25303;-78
2023/08/09 18:14:44;;;;;;;6.50;5.80;;;;;;;15.07;85.36;98877.06;221037;1304;23153;-79
2023/08/09 18:19:46;;;;;;;7.10;5.90;;;;;;;15.00;85.46;98883.28;221192;1307;22594;-77
2023/08/09 18:24:48;;;;;;;8.00;7.20;;;;;;;14.94;85.80;98891.27;221207;1304;25270;-81
2023/08/09 18:29:50;;;;;;;6.60;6.00;;;;;;;14.89;86.05;98894.44;221343;1307;24919;-78
2023/08/09 18:34:52;;;;;;;10.40;6.90;;;;;;;14.85;86.19;98910.05;221205;1305;23487;-78
2023/08/09 18:40:09;;;;;;;8.90;6.80;;;;;;;14.78;86.34;98915.98;221378;1298;22592;-79
2023/08/09 18:45:11;;;;;;;8.80;6.30;;;;;;;14.75;86.62;98917.34;221092;1303;22584;-78
2023/08/09 18:50:13;;;;;;;7.10;6.40;;;;;;;14.68;86.94;98927.80;221389;1307;22573;-78
2023/08/09 18:55:17;;;;;;;8.80;6.40;;;;;;;14.60;86.93;98940.35;221392;1301;22613;-79
2023/08/09 19:00:19;;;;;;;8.70;6.90;;;;;;;14.53;87.12;98938.67;221248;1307;22569;-78
2023/08/09 19:05:21;;;;;;;7.70;7.00;;;;;;;14.49;87.44;98948.41;221319;1301;22576;-79
2023/08/09 19:10:24;;;;;;;8.30;6.70;;;;;;;14.46;87.54;98947.05;221184;1301;23483;-79
2023/08/09 19:15:27;;;;;;;6.70;6.10;;;;;;;14.42;87.69;98956.80;221165;1307;22579;-78
2023/08/09 19:20:30;;;;;;;7.60;6.90;;;;;;;14.37;87.91;98961.33;221217;1306;22592;-79
2023/08/09 19:25:32;;;;;;;7.80;7.00;;;;;;;14.27;87.86;98969.77;221341;1304;22613;-78
2023/08/09 19:30:34;;;;;;;6.70;6.10;;;;;;;14.16;87.99;98969.45;221332;1305;22853;-79
2023/08/09 19:35:36;;;;;;;6.00;5.50;;;;;;;14.08;88.09;98973.48;221325;1304;22718;-79
2023/08/09 19:40:38;;;;;;;8.10;6.30;;;;;;;13.98;88.44;98975.11;221361;1304;25434;-79
2023/08/09 19:45:40;;;;;;;8.50;6.80;;;;;;;13.88;88.56;98983.70;221243;1306;22573;-80
2023/08/09 19:50:44;;;;;;;8.40;7.40;;;;;;;13.80;88.65;98982.21;221324;1306;22572;-78
2023/08/09 19:55:47;;;;;;;8.80;6.90;;;;;;;13.72;88.97;98987.11;221187;1304;22572;-80
2023/08/09 20:00:49;;;;;;;9.50;8.40;;;;;;;13.66;89.05;99000.51;221372;1307;22576;-78
2023/08/09 20:05:51;;;;;;;9.40;8.50;;;;;;;13.60;89.40;99001.61;221070;1307;22569;-78
2023/08/09 20:10:53;;;;;;;10.60;9.50;;;;;;;13.54;89.18;99003.63;221222;1298;22587;-79
2023/08/09 20:15:55;;;;;;;11.80;9.50;;;;;;;13.48;89.55;99003.14;221089;1307;22566;-78
2023/08/09 20:20:57;;;;;;;10.00;8.80;;;;;;;13.41;89.58;99011.77;221227;1304;23334;-78
2023/08/09 20:25:59;;;;;;;11.00;8.50;;;;;;;13.34;89.47;99014.33;221292;1304;22592;-78
2023/08/09 20:31:01;;;;;;;8.70;7.70;;;;;;;13.25;89.69;99025.68;221287;1307;22565;-79
2023/08/09 20:36:04;;;;;;;9.30;7.50;;;;;;;13.18;89.86;99033.34;221420;1304;22583;-79
2023/08/09 20:41:06;;;;;;;8.90;6.40;;;;;;;13.10;90.00;99041.99;221361;1304;22645;-80
2023/08/09 20:46:08;;;;;;;8.00;7.20;;;;;;;13.00;89.56;99048.70;221329;1305;25344;-79
2023/08/09 20:51:10;;;;;;;15.90;7.10;;;;;;;12.94;89.87;99055.17;221214;1304;22579;-78
2023/08/09 20:56:11;;;;;;;15.00;6.90;;;;;;;12.88;90.04;99057.33;221077;1304;22568;-77
2023/08/09 21:01:13;;;;;;;24.30;7.00;;;;;;;12.84;89.96;99063.50;221344;1298;22573;-78
2023/08/09 21:06:15;;;;;;;22.00;5.60;;;;;;;12.80;90.08;99069.70;221391;1304;22594;-78
2023/08/09 21:11:22;;;;;;;41.50;6.00;;;;;;;12.77;90.37;99070.96;221226;1306;22587;-78
2023/08/09 21:16:24;;;;;;;25.00;4.40;;;;;;;12.72;90.34;99074.81;221052;1304;22693;-78
2023/08/09 21:21:26;;;;;;;17.10;3.40;;;;;;;12.65;90.14;99081.86;221238;1307;22605;-79
2023/08/09 21:26:28;;;;;;;8.80;3.10;;;;;;;12.53;90.22;99085.08;221287;1304;22572;-78
2023/08/09 21:31:30;;;;;;;17.00;3.50;;;;;;;12.42;90.06;99086.91;221400;1304;24279;-78
2023/08/09 21:36:32;;;;;;;49.50;5.00;;;;;;;12.37;90.28;99090.17;221383;1304;22576;-77
2023/08/09 21:41:35;;;;;;;44.90;4.90;;;;;;;12.35;90.60;99089.66;221374;1304;25001;-78
2023/08/09 21:46:37;;;;;;;35.40;3.80;;;;;;;12.34;90.64;99093.52;221384;1304;22597;-79
2023/08/09 21:51:41;;;;;;;28.60;3.00;;;;;;;12.29;90.74;99093.25;221382;1306;24307;-78
2023/08/09 21:56:44;;;;;;;17.10;3.20;;;;;;;12.23;90.52;99096.66;221286;1304;22599;-79
2023/08/09 22:01:46;;;;;;;8.00;3.00;;;;;;;12.16;90.80;99095.74;221292;1304;22545;-78
2023/08/09 22:06:49;;;;;;;9.40;2.80;;;;;;;12.08;90.71;99097.50;221308;1301;22572;-78
2023/08/09 22:11:51;;;;;;;6.70;2.30;;;;;;;11.98;90.67;99096.27;221342;1304;22570;-78
2023/08/09 22:16:53;;;;;;;7.10;2.30;;;;;;;11.89;90.72;99101.14;221088;1306;22627;-78
2023/08/09 22:21:55;;;;;;;6.20;2.50;;;;;;;11.82;90.94;99104.50;221287;1304;22571;-77
2023/08/09 22:27:14;;;;;;;5.70;3.10;;;;;;;11.81;91.21;99108.64;221217;1307;22565;-77
2023/08/09 22:32:16;;;;;;;17.40;4.40;;;;;;;11.81;91.00;99109.41;221389;1307;22770;-77
2023/08/09 22:37:18;;;;;;;10.20;4.20;;;;;;;11.77;91.06;99105.54;221084;1307;24243;-77
2023/08/09 22:42:20;;;;;;;14.10;4.10;;;;;;;11.70;90.87;99103.41;221408;1304;22591;-79
2023/08/09 22:47:22;;;;;;;14.20;4.00;;;;;;;11.62;90.69;99116.17;221318;1304;119517;-77
2023/08/09 22:52:24;;;;;;;6.00;4.10;;;;;;;11.53;90.64;99114.09;221368;1304;22580;-78
2023/08/09 22:57:27;;;;;;;7.90;4.80;;;;;;;11.48;91.06;99109.05;221105;1307;22563;-78
2023/08/09 23:02:30;;;;;;;7.20;4.30;;;;;;;11.46;91.41;99114.14;221356;1304;22565;-78
2023/08/09 23:07:32;;;;;;;77.20;8.90;;;;;;;11.43;91.42;99121.19;221368;1304;22564;-78
2023/08/09 23:12:36;;;;;;;37.60;5.30;;;;;;;11.41;91.22;99121.77;221358;1287;22668;-77
2023/08/09 23:17:38;;;;;;;13.30;5.00;;;;;;;11.38;91.18;99119.98;221141;1307;24317;-78
2023/08/09 23:22:40;;;;;;;13.70;3.90;;;;;;;11.30;90.80;99114.11;221387;1304;23319;-77
2023/08/09 23:27:43;;;;;;;16.50;3.90;;;;;;;11.22;91.03;99116.30;221107;1307;22572;-77